Time;durP1;ratioP1;P1;durP2;ratioP2;P2;SDS_P1;SDS_P2;PMS_P1;PMS_P2;Temp;Humidity;BMP_temperature;BMP_pressure;BME280_temperature;BME280_humidity;BME280_pressure;Samples;Min_cycle;Max_cycle;Signal;HPM_P1;HPM_P2
2022/09/02 00:00:50;;;;;;;1.38;0.80;;;15.10;97.30;;;;;;4773636;30;20235;-87
2022/09/02 00:03:16;;;;;;;0.95;0.73;;;15.10;97.70;;;;;;4773022;30;20252;-87
2022/09/02 00:05:42;;;;;;;0.75;0.60;;;15.10;97.40;;;;;;4784373;30;20203;-86
2022/09/02 00:08:09;;;;;;;4.85;0.80;;;15.00;97.40;;;;;;4758057;30;20196;-89
2022/09/02 00:10:39;;;;;;;2.28;0.80;;;15.10;97.30;;;;;;4764723;30;20203;-88
2022/09/02 00:13:07;;;;;;;1.27;0.68;;;15.00;97.40;;;;;;4757474;30;20606;-87
2022/09/02 00:15:33;;;;;;;1.40;0.90;;;15.10;97.40;;;;;;4757604;30;20694;-87
2022/09/02 00:18:01;;;;;;;3.30;1.05;;;15.10;97.60;;;;;;4766867;30;20241;-87
2022/09/02 00:20:27;;;;;;;3.42;0.88;;;15.10;97.40;;;;;;4780711;30;20195;-87
2022/09/02 00:22:53;;;;;;;1.75;0.80;;;15.10;97.40;;;;;;4775420;30;20187;-87
2022/09/02 00:25:19;;;;;;;3.80;0.80;;;15.00;97.70;;;;;;4765211;30;20695;-87
2022/09/02 00:27:45;;;;;;;2.47;0.65;;;15.10;97.60;;;;;;4757421;30;20207;-87
2022/09/02 00:30:11;;;;;;;2.00;0.90;;;15.00;97.90;;;;;;4776090;30;20667;-87
2022/09/02 00:32:37;;;;;;;1.55;0.73;;;14.90;98.10;;;;;;4761004;30;20235;-83
2022/09/02 00:35:04;;;;;;;2.05;0.95;;;14.90;98.10;;;;;;4774005;30;20539;-87
2022/09/02 00:37:30;;;;;;;1.67;0.80;;;14.90;98.40;;;;;;4771284;30;20192;-89
2022/09/02 00:39:58;;;;;;;1.67;0.80;;;14.90;98.30;;;;;;4764177;30;20540;-86
2022/09/02 00:42:25;;;;;;;4.53;0.60;;;14.80;98.60;;;;;;4778919;30;20239;-89
2022/09/02 00:44:52;;;;;;;1.10;0.73;;;14.80;98.60;;;;;;4764194;30;20579;-86
2022/09/02 00:47:18;;;;;;;2.65;0.73;;;14.80;98.80;;;;;;4773242;30;20667;-84
2022/09/02 00:49:50;;;;;;;0.90;0.70;;;14.80;98.90;;;;;;4764538;30;20198;-87
2022/09/02 00:52:30;;;;;;;1.23;0.60;;;14.80;99.00;;;;;;4774674;30;20237;-88
2022/09/02 00:55:02;;;;;;;4.50;0.80;;;14.80;98.70;;;;;;4771623;30;20285;-87
2022/09/02 00:57:32;;;;;;;3.38;0.85;;;14.70;99.20;;;;;;4756665;30;20711;-87
2022/09/02 01:00:10;;;;;;;0.77;0.60;;;14.70;99.00;;;;;;4756509;30;20290;-87
2022/09/02 01:02:39;;;;;;;1.00;0.68;;;14.70;98.90;;;;;;4749701;30;20199;-86
2022/09/02 01:05:08;;;;;;;0.80;0.50;;;14.70;99.10;;;;;;4779154;30;20184;-87
2022/09/02 01:07:36;;;;;;;1.27;0.70;;;14.60;99.50;;;;;;4772180;30;20196;-87
2022/09/02 01:10:05;;;;;;;2.88;0.55;;;14.60;99.30;;;;;;5155307;24;20248;-84
2022/09/02 01:12:31;;;;;;;1.25;0.70;;;14.50;99.80;;;;;;4748316;30;20234;-84
2022/09/02 01:14:58;;;;;;;0.80;0.70;;;14.40;99.90;;;;;;4755548;30;20199;-84
2022/09/02 01:17:25;;;;;;;2.65;0.70;;;14.40;99.90;;;;;;4755270;30;20200;-83
2022/09/02 01:19:56;;;;;;;1.00;0.65;;;14.40;99.90;;;;;;4755444;30;20195;-84
2022/09/02 01:22:28;;;;;;;3.28;0.70;;;14.30;99.90;;;;;;4771029;30;20670;-83
2022/09/02 01:24:59;;;;;;;1.88;0.80;;;14.30;99.90;;;;;;4755214;30;20325;-84
2022/09/02 01:27:26;;;;;;;1.27;0.80;;;14.30;99.90;;;;;;4771461;30;20195;-84
2022/09/02 01:29:54;;;;;;;6.95;1.00;;;14.30;99.90;;;;;;4769153;30;20209;-86
2022/09/02 01:32:21;;;;;;;1.85;0.70;;;14.30;99.90;;;;;;4771253;30;20350;-83
2022/09/02 01:34:47;;;;;;;2.03;0.65;;;14.30;99.90;;;;;;4757532;30;20518;-86
2022/09/02 01:37:13;;;;;;;0.98;0.57;;;14.30;99.90;;;;;;4755447;30;20192;-87
2022/09/02 01:39:39;;;;;;;1.48;0.70;;;14.20;99.90;;;;;;4754617;30;20199;-85
2022/09/02 01:42:05;;;;;;;2.13;0.60;;;14.20;99.90;;;;;;4771399;30;20715;-84
2022/09/02 01:44:33;;;;;;;0.70;0.65;;;14.10;99.90;;;;;;4771066;30;20400;-83
2022/09/02 01:46:59;;;;;;;1.30;0.60;;;14.10;99.90;;;;;;4755282;30;20196;-83
2022/09/02 01:49:25;;;;;;;4.05;0.70;;;14.10;99.90;;;;;;4771037;30;20191;-83
2022/09/02 01:51:54;;;;;;;3.30;0.90;;;14.00;99.90;;;;;;4771093;30;20203;-83
2022/09/02 01:54:20;;;;;;;1.55;0.65;;;14.00;99.90;;;;;;4771146;30;20234;-83
2022/09/02 01:56:46;;;;;;;0.77;0.60;;;14.10;99.90;;;;;;4747364;30;20283;-83
2022/09/02 01:59:16;;;;;;;1.20;0.70;;;14.10;99.90;;;;;;4753797;30;20343;-83
2022/09/02 02:01:43;;;;;;;2.38;0.70;;;14.10;99.90;;;;;;4754827;30;20188;-85
2022/09/02 02:04:09;;;;;;;2.25;0.70;;;14.20;99.90;;;;;;4770870;30;20205;-85
2022/09/02 02:06:38;;;;;;;0.75;0.60;;;14.20;99.90;;;;;;4770723;30;20530;-85
2022/09/02 02:09:04;;;;;;;3.42;0.90;;;14.10;99.90;;;;;;4754974;30;20253;-86
2022/09/02 02:11:29;;;;;;;1.35;0.77;;;14.10;99.90;;;;;;4754344;30;20243;-86
2022/09/02 02:13:55;;;;;;;1.17;0.70;;;14.00;99.90;;;;;;4754599;30;20188;-85
2022/09/02 02:16:21;;;;;;;1.27;0.70;;;13.90;99.90;;;;;;4770572;30;20188;-87
2022/09/02 02:18:46;;;;;;;1.65;0.70;;;13.80;99.90;;;;;;4770908;30;20190;-84
2022/09/02 02:21:12;;;;;;;2.00;0.50;;;13.80;99.90;;;;;;4758197;30;20227;-82
2022/09/02 02:23:38;;;;;;;2.72;0.85;;;13.70;99.90;;;;;;4753284;30;20192;-83
2022/09/02 02:26:04;;;;;;;3.80;0.70;;;13.70;99.90;;;;;;4753444;30;20196;-84
2022/09/02 02:28:29;;;;;;;1.02;0.60;;;13.70;99.90;;;;;;4745137;30;20258;-81
2022/09/02 02:30:55;;;;;;;1.60;0.90;;;13.80;99.90;;;;;;4747892;30;20235;-83
2022/09/02 02:33:21;;;;;;;1.92;0.90;;;13.80;99.90;;;;;;4750517;30;20695;-84
2022/09/02 02:35:47;;;;;;;2.63;0.82;;;13.80;99.90;;;;;;4770627;30;20187;-83
2022/09/02 02:38:12;;;;;;;2.15;0.90;;;13.80;99.90;;;;;;4770585;30;20188;-84
2022/09/02 02:40:38;;;;;;;1.58;0.70;;;13.80;99.90;;;;;;4754223;30;20984;-83
2022/09/02 02:43:04;;;;;;;3.63;0.77;;;13.80;99.90;;;;;;4753759;30;20210;-86
2022/09/02 02:45:30;;;;;;;1.63;0.70;;;13.80;99.90;;;;;;4753215;30;20188;-85
2022/09/02 02:47:55;;;;;;;3.92;0.82;;;13.70;99.90;;;;;;4737944;30;20205;-83
2022/09/02 02:50:22;;;;;;;1.30;1.00;;;13.70;99.90;;;;;;4770131;30;20184;-83
2022/09/02 02:52:52;;;;;;;1.40;0.93;;;13.70;99.90;;;;;;4753984;30;20216;-85
2022/09/02 02:55:18;;;;;;;2.75;1.10;;;13.70;99.90;;;;;;4770101;30;20176;-86
2022/09/02 02:57:44;;;;;;;1.10;0.70;;;13.60;99.90;;;;;;4754043;30;20658;-86
2022/09/02 03:00:25;;;;;;;3.25;0.88;;;13.60;99.90;;;;;;4763911;30;20195;-83
2022/09/02 03:03:05;;;;;;;1.60;0.90;;;13.60;99.90;;;;;;4754310;30;20658;-85
2022/09/02 03:05:32;;;;;;;3.47;0.90;;;13.50;99.90;;;;;;4770186;30;20190;-86
2022/09/02 03:07:58;;;;;;;2.63;0.93;;;13.60;99.90;;;;;;4746244;30;20194;-83
2022/09/02 03:10:25;;;;;;;1.02;0.80;;;13.50;99.90;;;;;;4744798;30;20752;-84
2022/09/02 03:12:51;;;;;;;2.55;1.15;;;13.50;99.90;;;;;;4727248;30;20296;-83
2022/09/02 03:15:19;;;;;;;3.13;1.08;;;13.50;99.90;;;;;;4734496;30;20331;-83
2022/09/02 03:17:48;;;;;;;2.65;1.00;;;13.40;99.90;;;;;;4733335;30;20199;-83
2022/09/02 03:20:16;;;;;;;1.52;0.90;;;13.40;99.90;;;;;;4733225;30;20204;-83
2022/09/02 03:22:43;;;;;;;1.63;1.00;;;13.30;99.90;;;;;;4733463;30;20416;-83
2022/09/02 03:25:11;;;;;;;4.28;0.93;;;13.30;99.90;;;;;;4732808;30;20665;-83
2022/09/02 03:27:38;;;;;;;2.80;1.45;;;13.30;99.90;;;;;;4726309;30;20274;-82
2022/09/02 03:30:06;;;;;;;1.70;0.98;;;13.30;99.90;;;;;;4728264;30;20297;-83
2022/09/02 03:32:32;;;;;;;2.58;0.80;;;13.30;99.90;;;;;;4737565;30;20279;-82
2022/09/02 03:34:59;;;;;;;2.20;0.93;;;13.30;99.90;;;;;;4737627;30;20190;-83
2022/09/02 03:37:25;;;;;;;5.72;0.93;;;13.30;99.90;;;;;;4737851;30;20653;-83
2022/09/02 03:39:51;;;;;;;2.40;1.10;;;13.30;99.90;;;;;;4737466;30;20224;-84
2022/09/02 03:42:16;;;;;;;1.52;0.82;;;13.20;99.90;;;;;;4736316;30;20276;-83
2022/09/02 03:44:42;;;;;;;2.47;0.98;;;13.10;99.90;;;;;;4737493;30;20541;-83
2022/09/02 03:47:08;;;;;;;0.85;0.80;;;13.10;99.90;;;;;;4728555;30;20189;-83
2022/09/02 03:49:35;;;;;;;2.65;1.17;;;13.00;99.90;;;;;;4726959;30;20631;-83
2022/09/02 03:52:01;;;;;;;2.05;1.00;;;13.00;99.90;;;;;;4735916;30;20719;-83
2022/09/02 03:54:26;;;;;;;1.33;1.08;;;13.00;99.90;;;;;;4736443;30;20194;-83
2022/09/02 03:56:52;;;;;;;1.35;0.77;;;13.00;99.90;;;;;;4735868;30;20276;-82
2022/09/02 03:59:18;;;;;;;1.33;0.80;;;13.00;99.90;;;;;;4733880;30;20185;-83
2022/09/02 04:01:44;;;;;;;1.55;0.98;;;13.00;99.90;;;;;;4736141;30;20528;-82
2022/09/02 04:04:10;;;;;;;1.23;0.98;;;13.00;99.90;;;;;;4736960;30;20181;-83
2022/09/02 04:06:36;;;;;;;0.80;0.80;;;13.10;99.90;;;;;;4736250;30;20276;-83
2022/09/02 04:09:03;;;;;;;1.27;0.82;;;13.10;99.90;;;;;;4736015;30;20606;-83
2022/09/02 04:11:29;;;;;;;3.05;1.00;;;13.00;99.90;;;;;;4765229;30;20318;-82
2022/09/02 04:13:55;;;;;;;1.92;1.00;;;13.00;99.90;;;;;;4756307;30;20291;-83
2022/09/02 04:16:30;;;;;;;1.95;1.10;;;13.00;99.90;;;;;;4756817;30;20241;-84
2022/09/02 04:18:58;;;;;;;0.80;0.73;;;13.00;99.90;;;;;;4756446;30;20191;-84
2022/09/02 04:21:24;;;;;;;2.25;1.00;;;12.90;99.90;;;;;;4772430;30;20213;-82
2022/09/02 04:23:51;;;;;;;1.33;0.90;;;12.90;99.90;;;;;;4770836;30;20263;-83
2022/09/02 04:26:18;;;;;;;1.20;0.93;;;12.90;99.90;;;;;;4740102;30;20582;-83
2022/09/02 04:28:45;;;;;;;1.92;1.02;;;12.80;99.90;;;;;;4765757;30;20536;-83
2022/09/02 04:31:14;;;;;;;1.15;1.00;;;12.80;99.90;;;;;;4756035;30;20220;-83
2022/09/02 04:33:41;;;;;;;2.70;1.20;;;12.80;99.90;;;;;;4756155;30;20215;-83
2022/09/02 04:36:10;;;;;;;1.85;1.02;;;12.80;99.90;;;;;;4772465;30;20191;-83
2022/09/02 04:38:36;;;;;;;5.47;1.05;;;12.70;99.90;;;;;;4756034;30;20203;-83
2022/09/02 04:41:10;;;;;;;1.77;1.00;;;12.80;99.90;;;;;;4771365;30;20192;-83
2022/09/02 04:43:37;;;;;;;2.45;1.00;;;12.80;99.90;;;;;;4755936;30;20195;-85
2022/09/02 04:46:08;;;;;;;2.80;1.15;;;12.70;99.90;;;;;;4756139;30;20658;-84
2022/09/02 04:48:35;;;;;;;5.50;1.50;;;12.70;99.90;;;;;;4769685;30;20247;-82
2022/09/02 04:51:06;;;;;;;2.75;0.90;;;12.70;99.90;;;;;;4743619;30;20243;-82
2022/09/02 04:53:33;;;;;;;2.33;1.30;;;12.70;99.90;;;;;;4771971;30;20191;-85
2022/09/02 04:55:59;;;;;;;6.07;1.25;;;12.80;99.90;;;;;;4771919;30;20180;-83
2022/09/02 04:58:24;;;;;;;6.18;1.40;;;12.70;99.90;;;;;;4769189;30;20621;-84
2022/09/02 05:00:50;;;;;;;6.20;1.40;;;12.80;99.90;;;;;;4745315;30;20192;-84
2022/09/02 05:03:16;;;;;;;1.30;1.20;;;12.70;99.90;;;;;;4771525;30;20196;-83
2022/09/02 05:05:42;;;;;;;1.77;1.10;;;12.80;99.90;;;;;;4771661;30;20216;-83
2022/09/02 05:08:08;;;;;;;1.92;1.13;;;12.80;99.90;;;;;;4771903;30;20199;-83
2022/09/02 05:10:34;;;;;;;3.05;1.23;;;12.80;99.90;;;;;;4771123;30;20348;-83
2022/09/02 05:13:00;;;;;;;2.13;1.10;;;12.80;99.90;;;;;;4755146;30;20699;-82
2022/09/02 05:15:25;;;;;;;1.58;1.25;;;12.90;99.90;;;;;;4755464;30;20192;-83
2022/09/02 05:17:51;;;;;;;2.08;1.13;;;12.90;99.90;;;;;;4771574;30;20192;-82
2022/09/02 05:20:17;;;;;;;4.28;1.42;;;12.90;99.90;;;;;;4755171;30;20192;-84
2022/09/02 05:22:43;;;;;;;4.80;1.35;;;12.90;99.90;;;;;;4771679;30;20188;-84
2022/09/02 05:25:10;;;;;;;2.42;1.75;;;12.90;99.90;;;;;;4755005;30;20200;-82
2022/09/02 05:27:36;;;;;;;3.05;1.30;;;12.90;99.90;;;;;;4771609;30;20215;-83
2022/09/02 05:30:02;;;;;;;3.83;1.30;;;12.90;99.90;;;;;;4750849;30;20253;-84
2022/09/02 05:32:28;;;;;;;2.42;1.25;;;12.90;99.90;;;;;;4755328;30;20633;-83
2022/09/02 05:34:55;;;;;;;1.13;0.85;;;13.00;99.90;;;;;;4771358;30;20219;-83
2022/09/02 05:37:23;;;;;;;2.72;1.20;;;13.00;99.90;;;;;;4747627;30;20200;-84
2022/09/02 05:39:49;;;;;;;3.47;1.13;;;13.00;99.90;;;;;;4751785;30;20196;-83
2022/09/02 05:42:15;;;;;;;1.88;1.20;;;13.10;99.90;;;;;;4751744;30;20288;-82
2022/09/02 05:44:43;;;;;;;1.50;1.20;;;13.10;99.90;;;;;;4770203;30;20527;-84
2022/09/02 05:47:10;;;;;;;2.50;1.42;;;13.20;99.90;;;;;;4763463;30;20193;-83
2022/09/02 05:49:36;;;;;;;2.45;1.60;;;13.30;99.90;;;;;;4753607;30;20185;-83
2022/09/02 05:52:03;;;;;;;1.95;1.27;;;13.30;99.90;;;;;;4748297;30;20525;-82
2022/09/02 05:54:32;;;;;;;1.75;1.30;;;13.30;99.90;;;;;;4720065;30;20313;-82
2022/09/02 05:57:00;;;;;;;2.92;1.40;;;13.40;99.90;;;;;;4731785;30;20193;-83
2022/09/02 05:59:28;;;;;;;1.60;1.50;;;13.40;99.90;;;;;;4753470;30;20699;-84
2022/09/02 06:01:55;;;;;;;2.75;1.80;;;13.50;99.90;;;;;;4752667;30;20196;-83
2022/09/02 06:04:21;;;;;;;4.43;1.52;;;13.50;99.90;;;;;;4738221;30;20227;-83
2022/09/02 06:06:48;;;;;;;2.58;2.10;;;13.50;99.90;;;;;;4735205;30;20228;-83
2022/09/02 06:09:18;;;;;;;3.70;1.70;;;13.60;99.90;;;;;;4719577;30;20224;-82
2022/09/02 06:11:48;;;;;;;3.45;1.80;;;13.50;99.90;;;;;;4719228;30;20655;-84
2022/09/02 06:14:20;;;;;;;2.20;1.45;;;13.50;99.90;;;;;;4719377;30;20185;-83
2022/09/02 06:16:47;;;;;;;1.88;1.48;;;13.50;99.90;;;;;;4745022;30;20196;-82
2022/09/02 06:19:13;;;;;;;2.78;1.23;;;13.60;99.90;;;;;;4754347;30;20271;-82
2022/09/02 06:21:39;;;;;;;2.70;1.42;;;13.60;99.90;;;;;;4770557;30;20215;-83
2022/09/02 06:24:10;;;;;;;4.25;1.52;;;13.70;99.90;;;;;;4742182;30;20231;-81
2022/09/02 06:26:37;;;;;;;3.97;1.70;;;13.80;99.90;;;;;;4752990;30;20173;-81
2022/09/02 06:29:04;;;;;;;2.35;1.42;;;13.80;99.90;;;;;;4736972;30;20196;-83
2022/09/02 06:31:30;;;;;;;3.80;1.35;;;13.90;99.90;;;;;;4738878;30;20646;-81
2022/09/02 06:33:57;;;;;;;4.50;1.35;;;13.90;99.90;;;;;;4751397;30;20203;-83
2022/09/02 06:36:25;;;;;;;2.35;1.58;;;14.00;99.90;;;;;;4736879;30;20200;-82
2022/09/02 06:38:53;;;;;;;2.60;1.40;;;14.00;99.90;;;;;;4736896;30;20275;-83
2022/09/02 06:41:22;;;;;;;2.35;1.30;;;14.10;99.90;;;;;;4736870;30;20246;-83
2022/09/02 06:43:48;;;;;;;3.05;1.77;;;14.20;99.90;;;;;;4741676;30;20639;-80
2022/09/02 06:46:21;;;;;;;4.97;1.55;;;14.20;99.90;;;;;;4754384;30;20620;-83
2022/09/02 06:48:48;;;;;;;3.47;1.45;;;14.20;99.90;;;;;;4754218;30;20533;-83
2022/09/02 06:51:24;;;;;;;2.60;1.60;;;14.30;99.90;;;;;;4770545;30;20218;-83
2022/09/02 06:53:50;;;;;;;9.70;1.50;;;14.30;99.90;;;;;;4770569;30;20234;-83
2022/09/02 06:56:16;;;;;;;2.50;1.40;;;14.30;99.90;;;;;;4770279;30;20216;-84
2022/09/02 06:58:41;;;;;;;3.70;1.65;;;14.40;99.90;;;;;;4742397;30;20232;-83
2022/09/02 07:01:07;;;;;;;6.22;1.58;;;14.40;99.90;;;;;;4752443;30;20236;-82
2022/09/02 07:06:18;;;;;;;4.10;1.40;;;14.50;99.90;;;;;;4755962;30;20690;-85
2022/09/02 07:08:44;;;;;;;1.88;1.60;;;14.60;99.90;;;;;;4738409;30;20514;-83
2022/09/02 07:11:22;;;;;;;3.13;1.40;;;14.60;99.90;;;;;;4755959;30;20239;-86
2022/09/02 07:13:49;;;;;;;4.70;1.30;;;14.70;99.90;;;;;;4726008;30;20199;-85
2022/09/02 07:16:15;;;;;;;1.40;1.30;;;14.70;99.90;;;;;;4738749;30;20502;-87
2022/09/02 07:18:42;;;;;;;2.30;1.85;;;14.80;99.90;;;;;;4738527;30;20272;-90
2022/09/02 07:21:09;;;;;;;1.45;1.15;;;14.90;99.90;;;;;;4751654;30;20243;-87
2022/09/02 07:23:35;;;;;;;2.60;1.48;;;15.00;99.90;;;;;;4722416;30;20182;-88
2022/09/02 07:26:01;;;;;;;4.15;1.13;;;15.00;99.90;;;;;;4722372;30;20196;-87
2022/09/02 07:28:27;;;;;;;5.55;1.42;;;15.10;99.90;;;;;;4728657;30;20566;-82
2022/09/02 07:30:54;;;;;;;1.35;1.10;;;15.20;99.90;;;;;;4735243;30;20527;-85
2022/09/02 07:33:20;;;;;;;6.38;1.58;;;15.30;99.90;;;;;;4754401;30;20273;-87
2022/09/02 07:35:47;;;;;;;2.08;1.20;;;15.40;99.90;;;;;;4755363;30;20184;-87
2022/09/02 07:38:13;;;;;;;3.15;1.42;;;15.60;99.90;;;;;;4739476;30;20196;-87
2022/09/02 07:40:40;;;;;;;2.17;1.40;;;15.70;99.90;;;;;;4738420;30;20184;-87
2022/09/02 07:43:08;;;;;;;1.95;1.20;;;15.80;99.90;;;;;;4755113;30;20176;-87
2022/09/02 07:45:35;;;;;;;3.17;1.23;;;15.90;99.90;;;;;;4755526;30;20204;-86
2022/09/02 07:48:05;;;;;;;3.03;1.38;;;16.00;99.90;;;;;;4739867;30;20181;-84
2022/09/02 07:50:33;;;;;;;7.25;1.30;;;16.10;99.90;;;;;;4739290;30;20204;-85
2022/09/02 07:52:59;;;;;;;7.60;1.40;;;16.20;99.90;;;;;;4755092;30;20295;-85
2022/09/02 07:55:25;;;;;;;2.17;1.25;;;16.30;99.90;;;;;;4754579;30;20697;-83
2022/09/02 07:57:53;;;;;;;2.35;1.50;;;16.40;99.90;;;;;;4759756;30;20192;-86
2022/09/02 08:00:19;;;;;;;2.65;1.20;;;16.50;99.90;;;;;;4773062;30;20188;-84
2022/09/02 08:02:46;;;;;;;1.83;1.00;;;16.70;99.90;;;;;;4756764;30;20686;-85
2022/09/02 08:05:14;;;;;;;2.40;1.30;;;16.80;99.90;;;;;;4772499;30;20208;-84
2022/09/02 08:07:39;;;;;;;5.00;1.60;;;17.00;99.90;;;;;;4757261;30;20839;-83
2022/09/02 08:10:09;;;;;;;2.70;1.23;;;17.00;99.70;;;;;;4772534;30;20251;-85
2022/09/02 08:12:35;;;;;;;3.38;1.20;;;17.10;99.80;;;;;;4756618;30;20219;-84
2022/09/02 08:15:01;;;;;;;1.40;1.10;;;17.20;99.40;;;;;;4756504;30;20184;-83
2022/09/02 08:17:27;;;;;;;1.83;1.10;;;17.40;99.00;;;;;;4772419;30;20625;-86
2022/09/02 08:19:52;;;;;;;3.05;1.13;;;17.40;98.50;;;;;;4756655;30;20187;-81
2022/09/02 08:22:18;;;;;;;2.25;1.40;;;17.50;98.70;;;;;;4773025;30;20184;-84
2022/09/02 08:24:43;;;;;;;3.92;1.10;;;17.60;98.40;;;;;;4756523;30;20196;-85
2022/09/02 08:27:09;;;;;;;8.57;1.42;;;17.70;98.60;;;;;;4755805;30;20203;-86
2022/09/02 08:29:35;;;;;;;5.10;1.30;;;17.80;97.90;;;;;;4724372;30;20703;-84
2022/09/02 08:32:01;;;;;;;1.88;1.13;;;17.90;98.10;;;;;;4737214;30;20240;-85
2022/09/02 08:34:27;;;;;;;5.88;1.15;;;18.00;98.10;;;;;;4750782;30;20523;-84
2022/09/02 08:36:52;;;;;;;3.25;1.10;;;18.10;97.90;;;;;;4767367;30;20222;-83
2022/09/02 08:39:18;;;;;;;1.80;1.10;;;18.20;96.90;;;;;;4771276;30;20660;-85
2022/09/02 08:42:20;;;;;;;4.22;1.08;;;18.30;96.80;;;;;;4733195;30;20228;-85
2022/09/02 08:44:47;;;;;;;1.90;1.20;;;18.40;97.00;;;;;;4731796;30;20646;-86
2022/09/02 08:47:19;;;;;;;10.15;1.20;;;18.50;97.20;;;;;;4729197;30;20196;-83
2022/09/02 08:49:51;;;;;;;1.52;1.02;;;18.60;97.30;;;;;;4754004;30;20173;-84
2022/09/02 08:52:46;;;;;;;1.73;1.30;;;18.70;96.80;;;;;;4738601;30;20652;-83
2022/09/02 08:55:23;;;;;;;2.22;1.30;;;18.90;96.20;;;;;;4743291;30;20346;-85
2022/09/02 08:57:49;;;;;;;1.33;0.85;;;18.90;96.10;;;;;;4721014;30;20715;-85
2022/09/02 09:00:16;;;;;;;3.60;1.27;;;19.00;95.90;;;;;;4730546;30;20197;-83
2022/09/02 09:02:56;;;;;;;3.83;1.10;;;19.10;95.90;;;;;;4738502;30;20693;-82
2022/09/02 09:05:47;;;;;;;2.03;1.27;;;19.30;95.50;;;;;;4758671;30;20191;-84
2022/09/02 09:08:12;;;;;;;3.33;1.15;;;19.40;95.00;;;;;;4736431;30;20185;-83
2022/09/02 09:10:53;;;;;;;1.75;1.17;;;19.50;94.80;;;;;;4722571;30;20329;-85
2022/09/02 09:13:57;;;;;;;1.80;1.13;;;19.50;94.70;;;;;;4717850;30;20206;-84
2022/09/02 09:16:58;;;;;;;1.50;1.00;;;19.70;94.90;;;;;;4719032;30;20269;-84
2022/09/02 09:19:42;;;;;;;3.15;1.50;;;19.70;94.30;;;;;;4717580;30;20204;-83
2022/09/02 09:22:16;;;;;;;6.72;1.10;;;19.90;94.30;;;;;;4728849;30;20204;-84
2022/09/02 09:24:44;;;;;;;3.92;1.00;;;19.90;93.70;;;;;;4706512;30;20349;-84
2022/09/02 09:27:16;;;;;;;1.48;0.80;;;20.00;93.70;;;;;;4715474;30;20190;-84
2022/09/02 09:29:42;;;;;;;3.20;0.98;;;20.10;93.80;;;;;;4718478;30;20178;-84
2022/09/02 09:32:37;;;;;;;2.45;1.08;;;20.20;93.60;;;;;;4706464;30;20702;-83
2022/09/02 09:35:08;;;;;;;3.00;1.10;;;20.30;93.40;;;;;;4713615;30;20182;-82
2022/09/02 09:37:45;;;;;;;3.78;1.15;;;20.30;93.30;;;;;;4717315;30;20201;-85
2022/09/02 09:40:21;;;;;;;5.03;1.08;;;20.40;92.80;;;;;;4718690;30;20507;-84
2022/09/02 09:43:12;;;;;;;9.35;1.35;;;20.60;92.50;;;;;;4723227;30;20228;-82
2022/09/02 09:45:42;;;;;;;3.10;1.00;;;20.60;92.60;;;;;;4735583;30;20521;-83
2022/09/02 09:48:32;;;;;;;2.83;0.77;;;20.60;92.10;;;;;;5131955;27;20550;-82
2022/09/02 09:50:57;;;;;;;3.33;0.80;;;20.50;91.70;;;;;;5119706;28;20175;-83
2022/09/02 09:53:26;;;;;;;1.60;0.82;;;20.50;91.60;;;;;;5117602;27;20700;-84
2022/09/02 09:56:00;;;;;;;3.20;0.85;;;20.70;91.70;;;;;;5116325;28;20179;-83
2022/09/02 09:58:42;;;;;;;1.52;0.85;;;20.90;90.70;;;;;;5130938;28;20179;-82
2022/09/02 10:01:16;;;;;;;2.75;0.80;;;21.10;90.10;;;;;;5112556;28;20171;-81
2022/09/02 10:04:03;;;;;;;3.08;0.70;;;21.20;87.00;;;;;;5131110;28;20166;-82
2022/09/02 10:06:32;;;;;;;5.00;0.73;;;21.30;87.50;;;;;;5128953;28;20230;-81
2022/09/02 10:09:14;;;;;;;1.38;0.68;;;21.40;85.20;;;;;;5131169;28;20167;-83
2022/09/02 10:11:55;;;;;;;0.88;0.60;;;21.60;85.10;;;;;;5130643;28;20224;-81
2022/09/02 10:14:21;;;;;;;1.50;0.70;;;21.80;84.50;;;;;;5131175;28;20171;-81
2022/09/02 10:16:49;;;;;;;2.47;0.95;;;21.90;86.10;;;;;;5131255;28;20190;-82
2022/09/02 10:19:43;;;;;;;4.45;0.80;;;22.20;84.80;;;;;;5112420;28;20220;-80
2022/09/02 10:22:38;;;;;;;2.00;0.70;;;22.10;82.40;;;;;;5131525;28;20195;-81
2022/09/02 10:25:32;;;;;;;4.57;0.90;;;22.20;82.40;;;;;;5131204;28;20221;-84
2022/09/02 10:28:11;;;;;;;2.28;0.80;;;22.30;82.20;;;;;;5097964;28;20218;-84
2022/09/02 10:31:04;;;;;;;1.42;0.88;;;22.40;81.40;;;;;;5112709;28;20301;-85
2022/09/02 10:33:50;;;;;;;1.50;0.80;;;22.20;82.30;;;;;;5112555;28;20613;-85
2022/09/02 10:36:30;;;;;;;1.02;0.52;;;22.30;81.30;;;;;;5112569;28;20175;-82
2022/09/02 10:39:22;;;;;;;5.20;0.80;;;22.40;80.40;;;;;;5112337;28;20164;-81
2022/09/02 10:41:50;;;;;;;1.05;0.60;;;22.60;80.80;;;;;;5076341;28;20195;-86
2022/09/02 10:45:00;;;;;;;4.03;0.85;;;22.60;81.30;;;;;;5130123;28;20168;-86
2022/09/02 10:47:35;;;;;;;2.20;0.60;;;22.70;81.80;;;;;;5082312;28;20218;-85
2022/09/02 10:50:22;;;;;;;3.83;1.00;;;22.80;81.70;;;;;;5130453;28;20178;-83
2022/09/02 10:53:13;;;;;;;1.88;0.60;;;22.80;79.00;;;;;;5112534;28;20174;-86
2022/09/02 10:55:57;;;;;;;1.50;0.88;;;23.00;78.80;;;;;;5130419;28;20218;-83
2022/09/02 10:58:47;;;;;;;6.43;0.80;;;23.00;79.10;;;;;;5103807;28;20161;-82
2022/09/02 11:01:34;;;;;;;0.98;0.50;;;23.10;78.90;;;;;;5112340;28;20167;-86
2022/09/02 11:04:22;;;;;;;1.92;0.70;;;23.20;79.90;;;;;;5089250;28;20626;-83
2022/09/02 11:06:50;;;;;;;2.30;0.65;;;23.30;78.40;;;;;;5116928;28;20204;-84
2022/09/02 11:09:39;;;;;;;1.92;0.65;;;23.40;77.30;;;;;;5116614;28;20152;-86
2022/09/02 11:12:20;;;;;;;1.42;0.80;;;23.50;77.90;;;;;;5116455;28;20179;-87
2022/09/02 11:15:13;;;;;;;2.75;0.88;;;23.50;77.50;;;;;;5098240;28;20171;-83
2022/09/02 11:17:59;;;;;;;4.82;0.60;;;23.70;77.30;;;;;;5116651;28;20233;-84
2022/09/02 11:20:47;;;;;;;0.95;0.57;;;23.80;78.60;;;;;;5097922;28;20254;-83
2022/09/02 11:23:21;;;;;;;2.72;0.60;;;23.90;76.90;;;;;;5116506;28;20165;-84
2022/09/02 11:25:56;;;;;;;0.50;0.50;;;24.00;76.90;;;;;;5097563;28;20190;-83
2022/09/02 11:28:38;;;;;;;0.98;0.50;;;24.10;76.80;;;;;;5116007;28;20621;-84
2022/09/02 11:31:23;;;;;;;3.75;0.70;;;24.20;75.70;;;;;;5098084;28;20314;-85
2022/09/02 11:34:01;;;;;;;1.50;0.60;;;24.10;73.70;;;;;;5116258;28;20184;-83
2022/09/02 11:36:28;;;;;;;1.15;0.73;;;23.80;75.50;;;;;;5115138;28;20686;-81
2022/09/02 11:39:05;;;;;;;1.42;0.55;;;23.80;74.90;;;;;;5114865;28;20274;-82
2022/09/02 11:41:45;;;;;;;2.80;0.77;;;23.90;74.40;;;;;;5115424;28;20630;-83
2022/09/02 11:44:40;;;;;;;1.77;0.68;;;24.00;75.80;;;;;;5116086;28;20160;-83
2022/09/02 11:47:30;;;;;;;0.60;0.50;;;24.10;74.80;;;;;;5115942;28;20565;-81
2022/09/02 11:49:55;;;;;;;1.42;0.60;;;24.20;73.20;;;;;;5097436;28;20598;-84
2022/09/02 11:52:51;;;;;;;2.03;0.55;;;24.20;75.10;;;;;;5097682;28;20270;-83
2022/09/02 11:55:24;;;;;;;1.45;0.70;;;24.30;73.70;;;;;;5115812;28;20167;-82
2022/09/02 11:57:56;;;;;;;1.30;0.75;;;24.40;75.00;;;;;;5115794;28;20160;-82
2022/09/02 12:00:29;;;;;;;1.25;0.60;;;24.50;73.90;;;;;;5115456;28;20172;-83
2022/09/02 12:03:03;;;;;;;0.90;0.55;;;24.60;74.10;;;;;;5115767;28;20247;-81
2022/09/02 12:05:28;;;;;;;2.22;0.80;;;24.50;72.80;;;;;;5115735;28;20249;-82
2022/09/02 12:07:56;;;;;;;1.17;0.70;;;24.50;73.00;;;;;;5115751;28;20215;-83
2022/09/02 12:10:44;;;;;;;1.90;0.70;;;24.70;72.60;;;;;;5096103;28;20178;-81
2022/09/02 12:13:36;;;;;;;1.20;0.60;;;24.80;71.10;;;;;;5102697;28;20200;-82
2022/09/02 12:16:11;;;;;;;1.52;0.95;;;24.70;72.40;;;;;;5097094;28;20188;-84
2022/09/02 12:18:38;;;;;;;5.18;0.93;;;24.80;71.30;;;;;;5097334;28;20251;-86
2022/09/02 12:21:17;;;;;;;0.95;0.70;;;24.90;71.40;;;;;;5115011;28;20266;-81
2022/09/02 12:23:55;;;;;;;1.15;0.70;;;25.00;72.10;;;;;;5115581;28;20183;-83
2022/09/02 12:26:28;;;;;;;2.05;0.70;;;25.10;71.10;;;;;;5096766;28;20207;-82
2022/09/02 12:29:18;;;;;;;0.63;0.45;;;25.20;70.90;;;;;;5115629;28;20179;-84
2022/09/02 12:31:46;;;;;;;3.35;0.60;;;25.30;70.80;;;;;;5115296;28;20689;-86
2022/09/02 12:34:32;;;;;;;2.30;0.60;;;25.40;70.20;;;;;;5114367;28;20183;-86
2022/09/02 12:36:58;;;;;;;2.17;0.52;;;25.50;69.90;;;;;;5079843;28;20634;-86
2022/09/02 12:39:26;;;;;;;1.02;0.50;;;25.50;69.10;;;;;;5115141;28;20183;-85
2022/09/02 12:42:11;;;;;;;0.88;0.50;;;25.50;69.30;;;;;;5114614;28;20233;-85
2022/09/02 12:45:02;;;;;;;0.82;0.60;;;25.40;69.60;;;;;;5114873;28;20263;-86
2022/09/02 12:47:40;;;;;;;1.48;0.50;;;24.90;69.10;;;;;;5114830;28;20280;-84
2022/09/02 12:50:22;;;;;;;1.13;0.60;;;24.70;71.00;;;;;;5114207;28;20172;-86
2022/09/02 12:52:51;;;;;;;0.95;0.50;;;24.60;70.30;;;;;;5076320;28;20516;-86
2022/09/02 12:55:30;;;;;;;3.83;0.40;;;24.30;70.40;;;;;;5099471;28;20244;-84
2022/09/02 12:58:09;;;;;;;0.82;0.50;;;24.30;71.20;;;;;;5094430;28;20171;-86
2022/09/02 13:00:59;;;;;;;0.68;0.50;;;24.10;70.30;;;;;;5094292;28;20188;-86
2022/09/02 13:03:30;;;;;;;3.20;0.60;;;23.90;72.10;;;;;;5094484;28;20168;-87
2022/09/02 13:06:31;;;;;;;0.90;0.50;;;24.00;72.70;;;;;;5114125;28;20511;-84
2022/09/02 13:09:18;;;;;;;1.20;0.50;;;23.90;70.90;;;;;;5096275;28;20164;-85
2022/09/02 13:12:00;;;;;;;4.00;0.50;;;23.80;70.40;;;;;;5114592;28;20624;-86